Time;durP1;ratioP1;P1;durP2;ratioP2;P2;SDS_P1;SDS_P2;PMS_P1;PMS_P2;Temp;Humidity;BMP_temperature;BMP_pressure;BME280_temperature;BME280_humidity;BME280_pressure;Samples;Min_cycle;Max_cycle;Signal;HPM_P1;HPM_P2
2023/03/23 00:01:20;;;;;;;12.23;10.10;;;;;;;9.68;100.00;100053.13;5016487;28;20044;-75
2023/03/23 00:03:49;;;;;;;18.40;12.05;;;;;;;9.68;100.00;100042.59;5073862;28;20033;-75
2023/03/23 00:06:19;;;;;;;18.08;12.48;;;;;;;9.68;100.00;100024.19;5045711;28;20059;-75
2023/03/23 00:08:52;;;;;;;16.23;11.75;;;;;;;9.68;100.00;100033.84;5061767;28;20050;-75
2023/03/23 00:11:21;;;;;;;16.75;10.75;;;;;;;9.69;100.00;100022.41;5027302;28;20060;-76
2023/03/23 00:13:51;;;;;;;14.27;10.77;;;;;;;9.68;100.00;100020.69;5035757;28;20048;-76
2023/03/23 00:16:19;;;;;;;10.75;7.75;;;;;;;9.67;100.00;100014.53;5077825;28;20071;-75
2023/03/23 00:18:49;;;;;;;9.65;8.18;;;;;;;9.67;100.00;99998.75;5020543;28;20044;-76
2023/03/23 00:21:15;;;;;;;10.98;8.77;;;;;;;9.68;100.00;100005.75;5052201;28;20056;-76
2023/03/23 00:23:44;;;;;;;12.25;9.77;;;;;;;9.68;100.00;100000.50;5049839;28;20037;-75
2023/03/23 00:26:12;;;;;;;13.35;11.63;;;;;;;9.69;100.00;100002.22;5050351;28;20056;-75
2023/03/23 00:28:38;;;;;;;18.25;13.95;;;;;;;9.71;100.00;100002.22;5071548;28;20044;-75
2023/03/23 00:31:07;;;;;;;16.40;14.18;;;;;;;9.73;100.00;99998.72;5051571;28;20032;-75
2023/03/23 00:33:40;;;;;;;18.05;14.73;;;;;;;9.76;100.00;100008.34;5035325;28;20043;-75
2023/03/23 00:36:09;;;;;;;20.55;15.02;;;;;;;9.79;100.00;100002.16;5051699;28;20060;-74
2023/03/23 00:38:35;;;;;;;23.05;15.00;;;;;;;9.81;100.00;99995.13;5067710;28;20521;-75
2023/03/23 00:41:02;;;;;;;18.15;13.75;;;;;;;9.82;100.00;99996.91;5036484;28;20056;-75
2023/03/23 00:43:29;;;;;;;21.52;14.10;;;;;;;9.84;100.00;100000.38;5067227;28;20513;-75
2023/03/23 00:46:00;;;;;;;21.95;14.63;;;;;;;9.85;100.00;100017.91;5049558;28;20060;-75
2023/03/23 00:48:29;;;;;;;17.27;13.55;;;;;;;9.88;100.00;100041.56;5009455;28;20075;-75
2023/03/23 00:50:55;;;;;;;21.00;15.00;;;;;;;9.89;100.00;100040.72;5054571;28;20111;-74
2023/03/23 00:53:22;;;;;;;15.85;12.43;;;;;;;9.88;100.00;100024.03;5071702;28;20047;-75
2023/03/23 00:55:49;;;;;;;14.98;12.00;;;;;;;9.84;100.00;100016.19;5052632;28;20052;-75
2023/03/23 00:58:16;;;;;;;14.98;10.70;;;;;;;9.83;100.00;100017.03;5047961;28;20071;-75
2023/03/23 01:00:42;;;;;;;14.50;11.80;;;;;;;9.79;100.00;100020.59;5051208;28;20433;-74
2023/03/23 01:03:11;;;;;;;14.18;10.50;;;;;;;9.75;100.00;100025.88;5024192;28;20425;-75
2023/03/23 01:05:39;;;;;;;12.45;10.93;;;;;;;9.73;100.00;100011.88;5054925;28;20040;-75
2023/03/23 01:08:06;;;;;;;14.18;11.68;;;;;;;9.72;100.00;100022.41;5058933;28;20079;-75
2023/03/23 01:10:33;;;;;;;14.73;11.95;;;;;;;9.71;100.00;100010.13;5064540;28;20414;-75
2023/03/23 01:13:00;;;;;;;17.55;12.40;;;;;;;9.71;100.00;100036.44;5048537;28;20056;-74
2023/03/23 01:15:28;;;;;;;20.00;12.68;;;;;;;9.72;100.00;100038.19;5052658;28;20501;-75
2023/03/23 01:17:55;;;;;;;17.15;13.32;;;;;;;9.72;100.00;100031.16;5037904;28;20055;-75
2023/03/23 01:20:23;;;;;;;19.50;13.77;;;;;;;9.74;100.00;100028.53;5009591;28;20052;-75
2023/03/23 01:22:49;;;;;;;16.40;11.13;;;;;;;9.73;100.00;100024.13;5079865;28;20032;-73
2023/03/23 01:25:15;;;;;;;12.23;8.98;;;;;;;9.72;100.00;100002.22;5058809;28;20055;-75
2023/03/23 01:27:42;;;;;;;10.98;7.90;;;;;;;9.68;100.00;99987.34;5050244;28;20052;-74
2023/03/23 01:30:11;;;;;;;13.60;6.63;;;;;;;9.63;100.00;99997.00;5038368;28;20052;-75
2023/03/23 01:32:38;;;;;;;7.20;4.70;;;;;;;9.56;100.00;99979.53;5058806;28;20048;-75
2023/03/23 01:35:05;;;;;;;4.30;3.85;;;;;;;9.51;100.00;99976.06;5026707;28;20299;-75
2023/03/23 01:37:32;;;;;;;5.38;3.50;;;;;;;9.43;100.00;99970.81;5066638;28;20514;-75
2023/03/23 01:39:58;;;;;;;5.03;3.80;;;;;;;9.39;100.00;99950.69;5067672;28;20052;-75
2023/03/23 01:42:35;;;;;;;6.93;3.83;;;;;;;9.36;100.00;99946.34;5085768;28;20052;-75
2023/03/23 01:45:23;;;;;;;5.43;3.75;;;;;;;9.33;100.00;99956.88;5055700;28;20072;-75
2023/03/23 01:47:57;;;;;;;3.53;2.83;;;;;;;9.29;100.00;99952.50;5063563;28;20056;-76
2023/03/23 01:50:26;;;;;;;4.43;3.05;;;;;;;9.27;100.00;99945.53;5023105;28;20048;-76
2023/03/23 01:52:56;;;;;;;5.55;2.95;;;;;;;9.24;100.00;99953.44;5036158;28;20067;-76
2023/03/23 01:55:24;;;;;;;3.40;2.70;;;;;;;9.21;100.00;99942.94;5062884;28;20063;-76
2023/03/23 01:57:51;;;;;;;3.05;2.85;;;;;;;9.18;100.00;99935.94;5066171;28;20077;-74
2023/03/23 02:00:17;;;;;;;6.68;3.17;;;;;;;9.18;100.00;99942.06;5067581;28;20048;-76
2023/03/23 02:02:50;;;;;;;4.28;3.83;;;;;;;9.20;100.00;99949.06;5032067;28;20067;-74
2023/03/23 02:05:34;;;;;;;5.18;3.55;;;;;;;9.20;100.00;99947.31;5036191;28;20063;-76
2023/03/23 02:08:09;;;;;;;6.00;5.20;;;;;;;9.22;100.00;99945.53;5023189;28;20052;-74
2023/03/23 02:10:37;;;;;;;6.57;5.78;;;;;;;9.27;100.00;99945.53;5057152;28;20073;-74
2023/03/23 02:13:06;;;;;;;9.18;6.40;;;;;;;9.31;100.00;99934.13;5060645;28;20048;-76
2023/03/23 02:15:47;;;;;;;13.00;7.80;;;;;;;9.36;100.00;99925.31;5048597;28;20056;-74
2023/03/23 02:18:26;;;;;;;10.27;7.45;;;;;;;9.41;100.00;99922.63;5038581;28;20062;-75
2023/03/23 02:21:11;;;;;;;16.30;8.02;;;;;;;9.47;100.00;99900.69;5049733;28;20371;-76
2023/03/23 02:23:46;;;;;;;11.35;7.28;;;;;;;9.53;100.00;99911.19;5010438;28;20055;-76
2023/03/23 02:26:39;;;;;;;13.65;7.85;;;;;;;9.56;100.00;99917.28;5038818;28;20087;-76
2023/03/23 02:29:43;;;;;;;11.43;7.13;;;;;;;9.60;100.00;99912.00;5058463;28;20052;-76
2023/03/23 02:32:31;;;;;;;10.38;6.53;;;;;;;9.63;100.00;99899.69;5038525;28;20044;-76
2023/03/23 02:35:02;;;;;;;10.80;7.05;;;;;;;9.66;100.00;99911.94;5050968;28;20457;-75
2023/03/23 02:37:46;;;;;;;10.45;6.28;;;;;;;9.67;100.00;99909.28;5052562;28;20071;-75
2023/03/23 02:40:17;;;;;;;11.73;6.50;;;;;;;9.69;100.00;99915.41;5046063;28;20044;-76
2023/03/23 02:42:50;;;;;;;14.68;7.28;;;;;;;9.71;100.00;99910.16;5060211;28;20059;-76
2023/03/23 02:45:19;;;;;;;10.00;5.82;;;;;;;9.72;100.00;99910.13;5052516;28;20075;-76
2023/03/23 02:47:48;;;;;;;11.52;6.35;;;;;;;9.73;100.00;99893.47;5060385;28;20048;-76
2023/03/23 02:50:18;;;;;;;9.75;6.80;;;;;;;9.75;100.00;99893.44;5054293;28;20044;-75
2023/03/23 02:52:46;;;;;;;11.00;5.95;;;;;;;9.75;100.00;99882.91;5056962;28;20056;-76
2023/03/23 02:55:14;;;;;;;8.32;5.50;;;;;;;9.75;100.00;99883.81;5000750;28;20669;-75
2023/03/23 02:57:41;;;;;;;8.63;5.82;;;;;;;9.75;100.00;99886.44;5045385;28;20055;-75
2023/03/23 03:00:16;;;;;;;9.15;4.93;;;;;;;9.76;100.00;99872.38;5049415;28;20110;-75
2023/03/23 03:02:52;;;;;;;7.90;5.10;;;;;;;9.76;100.00;99880.28;5061848;28;20071;-75
2023/03/23 03:05:33;;;;;;;6.03;4.70;;;;;;;9.76;100.00;99856.59;5049822;28;20048;-76
2023/03/23 03:08:18;;;;;;;7.65;4.63;;;;;;;9.79;100.00;99862.72;5053636;28;20036;-75
2023/03/23 03:11:02;;;;;;;8.35;4.00;;;;;;;9.80;100.00;99861.84;5017803;28;20474;-75
2023/03/23 03:13:41;;;;;;;9.25;5.00;;;;;;;9.80;100.00;99864.47;5066070;28;20040;-75
2023/03/23 03:16:10;;;;;;;8.55;4.47;;;;;;;9.82;100.00;99865.34;5059057;28;20059;-75
2023/03/23 03:18:51;;;;;;;6.85;4.38;;;;;;;9.81;100.00;99864.47;5065319;28;20063;-75
2023/03/23 03:21:25;;;;;;;5.32;4.30;;;;;;;9.82;100.00;99858.31;5038882;28;20052;-75
2023/03/23 03:23:58;;;;;;;7.90;3.60;;;;;;;9.84;100.00;99853.03;5045999;28;20059;-75
2023/03/23 03:26:27;;;;;;;8.73;4.65;;;;;;;9.85;100.00;99865.28;5018889;28;20529;-75
2023/03/23 03:28:59;;;;;;;8.07;4.45;;;;;;;9.85;100.00;99857.38;5047697;28;20052;-76
2023/03/23 03:31:30;;;;;;;6.45;4.47;;;;;;;9.86;100.00;99859.16;5034295;28;20048;-75
2023/03/23 03:33:57;;;;;;;10.07;5.10;;;;;;;9.87;100.00;99858.28;5067846;28;20040;-75
2023/03/23 03:36:34;;;;;;;7.97;4.13;;;;;;;9.86;100.00;99857.38;5049705;28;20181;-75
2023/03/23 03:39:07;;;;;;;6.38;4.30;;;;;;;9.86;100.00;99861.78;5039051;28;20055;-75
2023/03/23 03:41:35;;;;;;;10.65;4.40;;;;;;;9.84;100.00;99855.66;5025746;28;20052;-75
2023/03/23 03:44:03;;;;;;;5.72;3.80;;;;;;;9.82;100.00;99852.19;5035532;28;20056;-75
2023/03/23 03:46:30;;;;;;;7.60;3.58;;;;;;;9.80;100.00;99841.66;5062544;28;20060;-75
2023/03/23 03:49:01;;;;;;;7.40;3.63;;;;;;;9.81;100.00;99832.00;5054354;28;20417;-75
2023/03/23 03:51:30;;;;;;;6.32;3.72;;;;;;;9.81;100.00;99845.16;5049387;28;20581;-75
2023/03/23 03:53:56;;;;;;;6.82;3.75;;;;;;;9.81;100.00;99842.53;5031517;28;20059;-74
2023/03/23 03:56:24;;;;;;;7.68;3.63;;;;;;;9.80;100.00;99840.81;5015944;28;20062;-76
2023/03/23 03:59:03;;;;;;;6.47;3.70;;;;;;;9.79;100.00;99845.16;5054488;28;20056;-76
2023/03/23 04:01:53;;;;;;;3.40;3.03;;;;;;;9.80;100.00;99861.84;5068718;28;20063;-76
2023/03/23 04:04:21;;;;;;;6.03;4.00;;;;;;;9.81;100.00;99858.31;5050397;28;20248;-75
2023/03/23 04:06:48;;;;;;;5.32;3.50;;;;;;;9.81;100.00;99851.31;5047662;28;20036;-75
2023/03/23 04:09:16;;;;;;;7.15;3.47;;;;;;;9.83;100.00;99861.78;5053509;28;20052;-76
2023/03/23 04:11:42;;;;;;;5.65;3.70;;;;;;;9.85;100.00;99852.13;5005225;28;20075;-76
2023/03/23 04:14:27;;;;;;;8.48;4.57;;;;;;;9.85;100.00;99873.19;5056613;28;20055;-75
2023/03/23 04:16:56;;;;;;;7.95;4.03;;;;;;;9.83;100.00;99867.06;5050349;28;20679;-76
2023/03/23 04:19:23;;;;;;;8.23;3.97;;;;;;;9.80;100.00;99867.97;5060568;28;20052;-76
2023/03/23 04:21:50;;;;;;;7.45;3.45;;;;;;;9.75;100.00;99865.41;5018290;28;20060;-76
2023/03/23 04:24:20;;;;;;;9.85;4.07;;;;;;;9.70;100.00;99855.81;5057638;28;20040;-76
2023/03/23 04:26:47;;;;;;;6.47;3.55;;;;;;;9.66;100.00;99861.94;5024373;28;20170;-75
2023/03/23 04:29:22;;;;;;;11.75;3.88;;;;;;;9.63;100.00;99857.59;5038195;28;20044;-76
2023/03/23 04:31:50;;;;;;;8.95;4.15;;;;;;;9.61;100.00;99855.88;5066748;28;20510;-74
2023/03/23 04:34:27;;;;;;;11.38;4.90;;;;;;;9.60;100.00;99856.75;5056732;28;20051;-75
2023/03/23 04:36:56;;;;;;;5.03;2.88;;;;;;;9.57;100.00;99855.03;5054548;28;20399;-75
2023/03/23 04:39:28;;;;;;;3.42;1.63;;;;;;;9.46;100.00;99855.13;5043859;28;20044;-75
2023/03/23 04:42:00;;;;;;;1.95;1.48;;;;;;;9.36;100.00;99845.56;5050692;28;20052;-75
2023/03/23 04:44:53;;;;;;;2.17;1.17;;;;;;;9.27;100.00;99848.25;5000284;28;20059;-75
2023/03/23 04:47:24;;;;;;;1.77;0.90;;;;;;;9.15;100.00;99867.63;5046740;28;20126;-75
2023/03/23 04:49:57;;;;;;;3.22;1.13;;;;;;;9.08;100.00;99885.19;5055917;28;20501;-75
2023/03/23 04:52:32;;;;;;;1.38;0.82;;;;;;;9.03;100.00;99886.09;5041978;28;20106;-75
2023/03/23 04:55:01;;;;;;;3.38;1.33;;;;;;;8.98;100.00;99873.00;5039291;28;20055;-74
2023/03/23 04:57:29;;;;;;;2.70;1.25;;;;;;;8.94;100.00;99887.00;5051006;28;20689;-74
2023/03/23 05:00:16;;;;;;;2.92;1.45;;;;;;;8.84;100.00;99861.69;5046619;28;20055;-74
2023/03/23 05:02:51;;;;;;;2.67;1.27;;;;;;;8.83;100.00;99854.66;5037946;28;20040;-74
2023/03/23 05:05:20;;;;;;;4.20;1.13;;;;;;;8.79;100.00;99864.34;5048091;28;20063;-74
2023/03/23 05:07:47;;;;;;;4.35;1.20;;;;;;;8.77;100.00;99863.44;5035908;28;20056;-74
2023/03/23 05:10:16;;;;;;;8.18;1.58;;;;;;;8.78;100.00;99863.44;5034648;28;20530;-74
2023/03/23 05:12:43;;;;;;;3.90;1.38;;;;;;;8.80;100.00;99867.84;5049451;28;20415;-74
2023/03/23 05:15:14;;;;;;;3.47;1.20;;;;;;;8.82;100.00;99864.31;5004921;28;20055;-74
2023/03/23 05:17:48;;;;;;;5.47;1.50;;;;;;;8.84;100.00;99864.31;5050680;28;20105;-74
2023/03/23 05:20:19;;;;;;;5.13;1.90;;;;;;;8.86;100.00;99875.66;5065938;28;20078;-74
2023/03/23 05:22:49;;;;;;;;;;;;;;;8.88;100.00;99873.91;5009822;28;20071;-74
2023/03/23 05:25:19;;;;;;;5.50;1.90;;;;;;;8.89;100.00;99866.03;5022743;28;19920;-77
2023/03/23 05:27:52;;;;;;;6.10;1.80;;;;;;;8.91;100.00;99861.63;5044937;28;20083;-74
2023/03/23 05:30:44;;;;;;;6.75;1.80;;;;;;;8.92;100.00;99863.38;5046861;28;20044;-76
2023/03/23 05:33:11;;;;;;;4.63;1.95;;;;;;;8.94;100.00;99861.63;5058247;28;20052;-76
2023/03/23 05:36:10;;;;;;;8.57;2.65;;;;;;;8.95;100.00;99876.50;5060171;28;20817;-76
2023/03/23 05:38:56;;;;;;;7.40;1.87;;;;;;;8.97;100.00;99887.88;5043486;28;20055;-75
2023/03/23 05:41:25;;;;;;;9.60;2.83;;;;;;;8.98;100.00;99884.38;5034186;28;20330;-74
2023/03/23 05:43:52;;;;;;;7.45;2.17;;;;;;;9.03;100.00;99883.47;5014978;28;20051;-76
2023/03/23 05:46:23;;;;;;;4.93;2.20;;;;;;;9.06;100.00;99889.56;5002761;28;20056;-74
2023/03/23 05:48:51;;;;;;;6.15;2.55;;;;;;;9.12;100.00;99899.19;5063127;28;20062;-75
2023/03/23 05:51:21;;;;;;;13.25;3.22;;;;;;;9.17;100.00;99895.63;5042845;28;20048;-76
2023/03/23 05:53:49;;;;;;;8.13;2.83;;;;;;;9.23;100.00;99897.34;5063298;28;20392;-76
2023/03/23 05:56:17;;;;;;;16.33;3.85;;;;;;;9.27;100.00;99892.94;5034541;28;20052;-75
2023/03/23 05:59:00;;;;;;;11.10;3.15;;;;;;;9.31;100.00;99886.78;5048797;28;20056;-75
2023/03/23 06:01:31;;;;;;;11.15;3.75;;;;;;;9.34;100.00;99900.78;5007695;28;20052;-75
2023/03/23 06:03:59;;;;;;;15.68;3.30;;;;;;;9.38;100.00;99903.41;5048332;28;20060;-75
2023/03/23 06:06:40;;;;;;;12.18;3.40;;;;;;;9.42;100.00;99898.09;5038413;28;20498;-75
2023/03/23 06:09:09;;;;;;;12.85;3.80;;;;;;;9.45;100.00;99894.56;5062787;28;20055;-76
2023/03/23 06:12:47;;;;;;;16.02;3.38;;;;;;;9.47;100.00;99895.41;5022538;28;20059;-76
2023/03/23 06:15:36;;;;;;;14.55;3.33;;;;;;;9.48;100.00;99892.78;5012539;28;20045;-75
2023/03/23 06:18:26;;;;;;;11.77;2.72;;;;;;;9.49;100.00;99897.19;5004522;28;20049;-75
2023/03/23 06:21:12;;;;;;;18.30;3.28;;;;;;;9.52;100.00;99904.16;5020707;28;20057;-75
2023/03/23 06:24:14;;;;;;;12.25;2.55;;;;;;;9.52;100.00;99910.28;4982989;28;20054;-75
2023/03/23 06:26:44;;;;;;;18.85;4.57;;;;;;;9.54;100.00;99918.16;4964977;28;20053;-75
2023/03/23 06:29:17;;;;;;;12.93;3.30;;;;;;;9.53;100.00;99921.69;5000389;28;20096;-75
2023/03/23 06:31:52;;;;;;;15.25;3.05;;;;;;;9.53;100.00;99927.81;4946702;28;20168;-76
2023/03/23 06:34:19;;;;;;;20.55;3.85;;;;;;;9.53;100.00;99924.34;4979693;28;20586;-76
2023/03/23 06:36:54;;;;;;;18.60;3.83;;;;;;;9.53;100.00;99926.97;5020353;28;20072;-76
2023/03/23 06:39:39;;;;;;;18.35;3.58;;;;;;;9.53;100.00;99951.50;5000905;28;20055;-76
2023/03/23 06:42:21;;;;;;;;;;;;;;;9.54;100.00;99947.09;4997615;28;20052;-76
2023/03/23 06:44:56;;;;;;;19.83;3.63;;;;;;;9.56;100.00;99945.31;5008186;28;20611;-76
2023/03/23 06:47:23;;;;;;;15.50;3.13;;;;;;;9.57;100.00;99949.72;5027688;28;20056;-76
2023/03/23 06:49:50;;;;;;;16.45;3.83;;;;;;;9.58;100.00;99946.19;5022131;28;20067;-77
2023/03/23 06:52:26;;;;;;;15.57;3.72;;;;;;;9.57;100.00;99953.22;5040123;28;20064;-76
2023/03/23 06:54:53;;;;;;;20.05;3.53;;;;;;;9.59;100.00;99961.09;5047946;28;20048;-77
2023/03/23 06:57:20;;;;;;;16.38;3.60;;;;;;;9.56;100.00;99967.25;5050482;28;20048;-76
2023/03/23 06:59:48;;;;;;;12.15;2.88;;;;;;;9.54;100.00;99962.88;5040023;28;20054;-77
2023/03/23 07:02:15;;;;;;;19.83;3.00;;;;;;;9.54;100.00;99971.63;5052366;28;20041;-77
2023/03/23 07:04:43;;;;;;;15.60;2.83;;;;;;;9.55;100.00;99967.28;4986279;28;20032;-77
2023/03/23 07:07:18;;;;;;;13.50;2.95;;;;;;;9.55;100.00;99969.91;5050123;28;20126;-77
2023/03/23 07:10:11;;;;;;;11.13;2.38;;;;;;;9.52;100.00;99986.56;5040077;28;20048;-76
2023/03/23 07:12:40;;;;;;;9.32;1.85;;;;;;;9.51;100.00;99995.34;5066760;28;20060;-76
2023/03/23 07:15:12;;;;;;;10.23;2.65;;;;;;;9.48;100.00;99992.72;5029629;28;20071;-77
2023/03/23 07:17:41;;;;;;;8.00;2.38;;;;;;;9.52;100.00;100009.34;5047276;28;20505;-77
2023/03/23 07:20:16;;;;;;;11.27;2.42;;;;;;;9.53;100.00;100009.34;5009469;28;20052;-76
2023/03/23 07:22:43;;;;;;;13.35;2.40;;;;;;;9.49;100.00;100004.09;5027932;28;20083;-75
2023/03/23 07:25:22;;;;;;;6.57;1.65;;;;;;;9.45;100.00;100012.91;5021175;28;20061;-75
2023/03/23 07:27:52;;;;;;;9.32;1.77;;;;;;;9.44;100.00;100013.81;5041603;28;20056;-75
2023/03/23 07:30:19;;;;;;;8.43;2.00;;;;;;;9.47;100.00;100021.66;5015292;28;20074;-76
2023/03/23 07:32:46;;;;;;;7.40;1.70;;;;;;;9.48;100.00;100012.91;5023021;28;20062;-75
2023/03/23 07:35:13;;;;;;;9.18;2.10;;;;;;;9.52;100.00;100027.78;4992022;28;20055;-76
2023/03/23 07:38:02;;;;;;;10.88;2.45;;;;;;;9.54;100.00;100028.63;5023920;28;20064;-77
2023/03/23 07:40:32;;;;;;;7.97;2.00;;;;;;;9.54;100.00;100026.88;5027352;28;20101;-77
2023/03/23 07:43:04;;;;;;;8.73;2.45;;;;;;;9.55;100.00;100017.25;5016879;28;20961;-77
2023/03/23 07:45:53;;;;;;;13.07;2.53;;;;;;;9.54;100.00;100032.13;5049348;28;20064;-75
2023/03/23 07:48:22;;;;;;;10.55;2.50;;;;;;;9.60;100.00;100036.47;5026812;28;20079;-76
2023/03/23 07:50:48;;;;;;;10.82;3.45;;;;;;;9.66;100.00;100025.94;4961871;28;20518;-77
2023/03/23 07:53:15;;;;;;;13.65;2.88;;;;;;;9.77;100.00;100031.13;5044588;28;20057;-75
2023/03/23 07:55:44;;;;;;;14.98;3.55;;;;;;;10.00;100.00;100027.44;5039236;28;20044;-76
2023/03/23 07:58:31;;;;;;;13.40;3.33;;;;;;;10.15;100.00;100028.22;5004606;28;20056;-77
2023/03/23 08:00:58;;;;;;;17.83;3.55;;;;;;;10.18;100.00;100036.97;5044296;28;20075;-77
2023/03/23 08:03:28;;;;;;;19.00;3.45;;;;;;;10.25;100.00;100038.69;5013243;28;20087;-77
2023/03/23 08:06:29;;;;;;;19.33;4.10;;;;;;;10.37;100.00;100028.06;4963300;28;20051;-75
2023/03/23 08:09:21;;;;;;;22.25;4.35;;;;;;;10.49;100.00;100041.13;5008520;28;20396;-77
2023/03/23 08:12:11;;;;;;;17.17;3.60;;;;;;;10.53;100.00;100053.38;5022567;28;20114;-75
2023/03/23 08:15:03;;;;;;;25.15;4.60;;;;;;;10.52;100.00;100046.34;5029652;28;20127;-75
2023/03/23 08:18:00;;;;;;;19.70;3.70;;;;;;;10.51;100.00;100041.97;5010918;28;20067;-75
2023/03/23 08:20:47;;;;;;;17.40;4.63;;;;;;;10.51;100.00;100051.66;5016166;28;20056;-75
2023/03/23 08:23:33;;;;;;;21.95;4.90;;;;;;;10.48;100.00;100062.22;4996109;28;20044;-75
2023/03/23 08:26:15;;;;;;;26.42;5.80;;;;;;;10.49;100.00;100058.66;5026105;28;20056;-75
2023/03/23 08:29:05;;;;;;;22.05;4.13;;;;;;;10.52;100.00;100051.63;5039303;28;20045;-74
2023/03/23 08:32:07;;;;;;;24.80;4.18;;;;;;;10.51;100.00;100065.69;5028881;28;20067;-75
2023/03/23 08:35:07;;;;;;;24.92;4.10;;;;;;;10.59;100.00;100054.22;4987436;28;20059;-75
2023/03/23 08:38:12;;;;;;;20.48;4.32;;;;;;;10.75;100.00;100053.16;4934546;28;20493;-75
2023/03/23 08:40:59;;;;;;;15.90;3.30;;;;;;;10.91;100.00;100057.38;4942733;28;20046;-75
2023/03/23 08:43:47;;;;;;;24.67;4.85;;;;;;;11.01;100.00;100063.44;5027389;28;20056;-75
2023/03/23 08:46:32;;;;;;;19.23;3.88;;;;;;;11.08;100.00;100058.97;5034672;28;20064;-74
2023/03/23 08:49:34;;;;;;;22.65;4.38;;;;;;;11.08;100.00;100074.78;5042538;28;20049;-75
2023/03/23 08:52:19;;;;;;;21.67;4.35;;;;;;;11.07;100.00;100076.53;5047137;28;20049;-75
2023/03/23 08:55:12;;;;;;;13.23;3.67;;;;;;;11.10;100.00;100078.28;4998615;28;20048;-74
2023/03/23 08:57:52;;;;;;;22.52;5.15;;;;;;;11.21;100.00;100081.66;5026858;28;20065;-75
2023/03/23 09:00:54;;;;;;;28.15;4.75;;;;;;;11.28;100.00;100080.69;4993158;28;20049;-76
2023/03/23 09:03:49;;;;;;;24.92;4.57;;;;;;;11.28;100.00;100078.03;5021657;28;20057;-76
2023/03/23 09:06:45;;;;;;;22.92;5.45;;;;;;;11.29;100.00;100071.88;5042660;28;20067;-75
2023/03/23 09:09:12;;;;;;;19.45;4.43;;;;;;;11.44;100.00;100076.09;5017635;28;20056;-76
2023/03/23 09:11:39;;;;;;;19.98;4.45;;;;;;;11.59;100.00;100061.84;5050187;28;20045;-74
2023/03/23 09:14:07;;;;;;;25.83;5.20;;;;;;;11.50;100.00;100069.88;5057759;28;20060;-76
2023/03/23 09:16:34;;;;;;;18.55;4.47;;;;;;;11.45;100.00;100080.47;5034319;28;20491;-75
2023/03/23 09:19:01;;;;;;;30.02;5.63;;;;;;;11.42;100.00;100071.75;5042944;28;20044;-75
2023/03/23 09:21:29;;;;;;;17.33;4.03;;;;;;;11.39;100.00;100084.97;5051574;28;20072;-74
2023/03/23 09:23:58;;;;;;;32.22;5.38;;;;;;;11.35;100.00;100085.91;5004493;28;20063;-74
2023/03/23 09:26:26;;;;;;;19.42;4.85;;;;;;;11.30;100.00;100093.84;5034033;28;20853;-75
2023/03/23 09:28:52;;;;;;;21.20;4.15;;;;;;;11.31;100.00;100093.84;5038313;28;20067;-75
2023/03/23 09:31:22;;;;;;;18.38;4.05;;;;;;;11.34;100.00;100099.97;5048645;28;20045;-76
2023/03/23 09:33:51;;;;;;;18.77;4.25;;;;;;;11.39;100.00;100092.88;5056418;28;20060;-77
2023/03/23 09:36:21;;;;;;;20.25;4.03;;;;;;;11.36;100.00;100107.00;5041243;28;20059;-75
2023/03/23 09:38:48;;;;;;;19.45;4.43;;;;;;;11.44;100.00;100107.75;5027826;28;20064;-75
2023/03/23 09:41:57;;;;;;;21.35;5.10;;;;;;;11.49;100.00;100118.25;4997059;28;20064;-76
2023/03/23 09:44:50;;;;;;;22.15;5.20;;;;;;;11.58;100.00;100112.84;5033445;28;20060;-76
2023/03/23 09:47:22;;;;;;;18.80;4.38;;;;;;;11.76;100.00;100113.50;5012024;28;20435;-77
2023/03/23 09:49:59;;;;;;;18.73;3.88;;;;;;;11.75;100.00;100117.06;5055879;28;20071;-75
2023/03/23 09:52:54;;;;;;;16.30;3.90;;;;;;;11.58;100.00;100131.34;5051857;28;20495;-74
2023/03/23 09:55:21;;;;;;;17.05;4.88;;;;;;;11.56;100.00;100124.34;5041652;28;20044;-76
2023/03/23 09:57:56;;;;;;;23.15;5.40;;;;;;;11.49;100.00;100119.16;4991425;28;20508;-75
2023/03/23 10:00:47;;;;;;;21.20;4.07;;;;;;;11.39;100.00;100112.22;5054181;28;20051;-76
2023/03/23 10:03:17;;;;;;;21.48;4.88;;;;;;;11.29;100.00;100116.72;5029742;28;20064;-76
2023/03/23 10:05:52;;;;;;;27.38;5.80;;;;;;;11.30;100.00;100128.13;5059268;28;20041;-76
2023/03/23 10:08:30;;;;;;;23.77;4.97;;;;;;;11.40;100.00;100121.88;5019776;28;20052;-76
2023/03/23 10:11:05;;;;;;;24.80;4.82;;;;;;;11.55;100.00;100123.47;5026100;28;20059;-76
2023/03/23 10:13:40;;;;;;;22.30;4.13;;;;;;;11.64;100.00;100119.81;5039683;28;20060;-75
2023/03/23 10:16:19;;;;;;;21.20;4.78;;;;;;;11.82;100.00;100124.88;5049722;28;20060;-74
2023/03/23 10:19:04;;;;;;;17.73;4.00;;;;;;;12.02;100.00;100127.28;5030267;28;20502;-75
2023/03/23 10:21:33;;;;;;;20.65;3.88;;;;;;;12.21;100.00;100112.03;5031697;28;20067;-75
2023/03/23 10:24:08;;;;;;;17.55;4.03;;;;;;;12.31;100.00;100110.13;5049176;28;20063;-75
2023/03/23 10:26:48;;;;;;;21.25;4.35;;;;;;;12.35;100.00;100127.66;5061532;28;20411;-76
2023/03/23 10:29:24;;;;;;;25.30;4.45;;;;;;;12.24;100.00;100119.88;5032632;28;20060;-76
2023/03/23 10:31:59;;;;;;;12.50;3.40;;;;;;;12.15;100.00;100121.81;5045926;28;20052;-76
2023/03/23 10:34:40;;;;;;;19.05;4.38;;;;;;;12.16;100.00;100131.50;5046961;28;20036;-76
2023/03/23 10:37:18;;;;;;;17.90;3.63;;;;;;;12.24;100.00;100134.88;5063752;28;20045;-76
2023/03/23 10:39:55;;;;;;;20.55;4.50;;;;;;;12.32;100.00;100117.13;5027629;28;20055;-77
2023/03/23 10:42:35;;;;;;;20.25;4.03;;;;;;;12.29;100.00;100133.03;5018246;28;20028;-76
2023/03/23 10:45:17;;;;;;;18.52;4.03;;;;;;;12.29;100.00;100144.47;5036779;28;20047;-77
2023/03/23 10:47:55;;;;;;;22.33;3.63;;;;;;;12.27;100.00;100151.56;5056047;28;20052;-76
2023/03/23 10:50:27;;;;;;;13.05;4.50;;;;;;;12.20;100.00;100151.66;5042119;28;20060;-75
2023/03/23 10:52:57;;;;;;;17.10;4.22;;;;;;;12.03;100.00;100162.47;5045529;28;20048;-74
2023/03/23 10:55:34;;;;;;;21.00;3.78;;;;;;;11.96;100.00;100161.66;5051837;28;20051;-75
2023/03/23 10:58:04;;;;;;;17.77;3.28;;;;;;;11.96;100.00;100156.38;4993079;28;20053;-74
2023/03/23 11:00:31;;;;;;;18.83;4.22;;;;;;;12.00;100.00;100166.03;5053240;28;20045;-76
2023/03/23 11:02:59;;;;;;;19.33;3.75;;;;;;;12.14;100.00;100164.97;5015816;28;20056;-74
2023/03/23 11:05:35;;;;;;;14.55;3.45;;;;;;;12.19;100.00;100164.00;5065395;28;20517;-75
2023/03/23 11:08:01;;;;;;;17.70;3.85;;;;;;;12.30;100.00;100150.63;5028057;28;20506;-75
2023/03/23 11:10:47;;;;;;;16.00;3.22;;;;;;;12.42;100.00;100150.44;5019062;28;20063;-75
2023/03/23 11:13:15;;;;;;;19.27;4.18;;;;;;;12.47;100.00;100159.16;5062779;28;20454;-75
2023/03/23 11:15:47;;;;;;;17.00;4.03;;;;;;;12.52;100.00;100152.97;5020691;28;20057;-75
2023/03/23 11:18:42;;;;;;;19.95;4.70;;;;;;;12.45;100.00;100154.81;5031062;28;20057;-75
2023/03/23 11:21:12;;;;;;;17.40;3.58;;;;;;;12.51;100.00;100151.19;5054108;28;20044;-75
2023/03/23 11:23:47;;;;;;;23.85;4.80;;;;;;;12.53;100.00;100147.63;5045263;28;20048;-75
2023/03/23 11:26:20;;;;;;;15.60;4.28;;;;;;;12.61;100.00;100164.25;5032929;28;20075;-75
2023/03/23 11:28:57;;;;;;;19.75;4.13;;;;;;;12.82;100.00;100147.16;5059436;28;20049;-75
2023/03/23 11:31:27;;;;;;;19.45;3.72;;;;;;;12.93;100.00;100146.06;4992757;28;20063;-75
2023/03/23 11:34:20;;;;;;;17.02;3.70;;;;;;;13.10;100.00;100157.25;5028142;28;20071;-79
2023/03/23 11:37:02;;;;;;;12.00;3.58;;;;;;;13.32;100.00;100151.59;5020668;28;20068;-77
2023/03/23 11:39:31;;;;;;;15.32;4.82;;;;;;;13.53;100.00;100158.22;5042787;28;20047;-78
2023/03/23 11:42:01;;;;;;;19.90;3.70;;;;;;;13.72;100.00;100148.13;5016368;28;20057;-78
2023/03/23 11:44:41;;;;;;;13.20;3.63;;;;;;;13.96;100.00;100162.63;5022235;28;20052;-77
2023/03/23 11:47:23;;;;;;;18.52;3.60;;;;;;;14.19;100.00;100157.69;5004654;28;20107;-77
2023/03/23 11:50:08;;;;;;;13.82;3.30;;;;;;;14.26;100.00;100160.22;5043597;28;20072;-78
2023/03/23 11:53:04;;;;;;;13.90;3.60;;;;;;;14.35;100.00;100167.97;5036425;28;20051;-78
2023/03/23 11:55:34;;;;;;;17.70;3.42;;;;;;;14.14;100.00;100164.00;5008777;28;20107;-78
2023/03/23 11:58:09;;;;;;;8.43;2.92;;;;;;;13.81;100.00;100172.63;5027641;28;20691;-79